Kalkaska, MI (49646)

8:02 PM EDT on August 29, 2015 (GMT -0400)
Kalkaska | | Change Station
CLOSE
Current Station
Personal Weather Station
Location: Kalkaska, MI
Elevation: 1030 ft
Nearby Weather Stations

Elev 1030 ft 44.74 °N, 85.18 °W | Updated 45 seconds ago

Overcast
Overcast
68.1 °F
Feels Like 68.1 °F
N
0.0
Wind Variable Wind from South
Gusts 5.0 mph

Today
High -- | Low -- °F
--% Chance of Precip.
Yesterday
High -- | Low -- °F
Precip. -- in
6:58 AM 8:22 PM
Full, 100% visible
Pressure 30.07 in
Visibility 10.0 miles
Clouds Overcast 4600 ft
Dew Point 62 °F
Humidity 81%
Rainfall 0.14 in
Snow Depth Not available.
UV 0 out of 12
Pollen 9.00 out of 12
Air Quality Not available.
Flu Activity Not available.
METAR KGOV 292357Z AUTO 16003KT 10SM OVC046 19/16 A3007 RMK AO2 T01910157 10221 20191
Pressure 30.07 in
Visibility 10.0 miles
Clouds Overcast 4600 ft
Dew Point 62 °F
Humidity 81%
Rainfall 0.14 in
Snow Depth Not available.
UV 0 out of 12
Pollen 9.00 out of 12
Air Quality Not available.
Flu Activity Not available.
METAR KGOV 292357Z AUTO 16003KT 10SM OVC046 19/16 A3007 RMK AO2 T01910157 10221 20191
Nowcast | as of 8:00 PM EDT on August 29, 2015

At 9 PM...mostly cloudy. Temperature 69. Light winds. At 11 PM...mostly cloudy. Temperature 68. Light winds. At 1 am...partly cloudy. Patchy fog. Temperature 67. Light winds. At 3 am...partly cloudy. Patchy fog. Temperature 65. Light winds.

×

10-Day Weather Forecast

×

Almanac

Astronomy

Aug. 29, 2015 Rise Set
Actual Time
Civil Twilight
Nautical Twilight
Astronomical Twilight
Moon
Length of Visible Light
Length of Day
Tomorrow will be .
, % of the Moon is Illuminated

Today's Extremes

State Highs State Lows

Community

WunderPhotos

Upload Photos

1,850,789 photos uploaded!

WunderBlogs® & News

Nearby

Air Quality

  Air Quality AQ Index Pollutant
Not available.

Snow Depth

Station Depth Elevation

Earthquake Activity

City Distance Mag. Time & Date
Minimum magnitude displayed is 2.5.

Coastal Water Temperatures

Place Temperature

Stations

Nearby Weather Stations

Station Location Temp. Windchill Dew Point Humidity Wind Precip. Elev Updated Type